Miami, FL

11:33 PM EDT on May 24, 2015 (GMT -0400)
JA Richmond West | | Change Station
CLOSE
Current Station
Personal Weather Station
Location: Miami, FL
Elevation: 7 ft
Nearby Weather Stations

Elev 7 ft 25.61 °N, 80.43 °W | Updated 3 minutes ago

Clear
Clear
80.8 °F
Feels Like 84 °F
N
6.8
Wind Variable Wind from ESE
Gusts 9.9 mph

Today
High -- | Low -- °F
--% Chance of Precip.
Yesterday
High -- | Low -- °F
Precip. -- in
6:32 AM 8:04 PM
Waxing Crescent, 44% visible
Pressure 30.16 in
Visibility 10.0 miles
Clouds Clear
Heat Index 84 °F
Dew Point 70 °F
Humidity 71%
Rainfall 0.00 in
Snow Depth Not available.
UV 0 out of 12
Pollen 4.40 out of 12
Air Quality Not available.
Flu Activity Sporadic
METAR KTMB 250253Z 10009KT 10SM CLR 27/22 A3016 RMK AO2 SLP211 T02670217 53015

More Conditions Fewer Conditions

Pressure 30.16 in
Visibility 10.0 miles
Clouds Clear
Heat Index 84 °F
Dew Point 70 °F
Humidity 71%
Rainfall 0.00 in
Snow Depth Not available.
UV 0 out of 12
Pollen 4.40 out of 12
Air Quality Not available.
Flu Activity Sporadic
METAR KTMB 250253Z 10009KT 10SM CLR 27/22 A3016 RMK AO2 SLP211 T02670217 53015

More Conditions Fewer Conditions

10-Day Weather Forecast

Almanac

Astronomy

May. 24, 2015 Rise Set
Actual Time
Civil Twilight
Nautical Twilight
Astronomical Twilight
Moon
Length of Visible Light
Length of Day
Tomorrow will be .
, % of the Moon is Illuminated

Today's Extremes

State Highs State Lows

Community

WunderPhotos

Upload Photos

1,823,947 photos uploaded!

WunderBlogs® & News

Nearby

Air Quality

  Air Quality AQ Index Pollutant
Not available.

Snow Depth

Station Depth Elevation

Earthquake Activity

City Distance Mag. Time & Date
Minimum magnitude displayed is 2.5.

Coastal Water Temperatures

Place Temperature

Stations

Nearby Weather Stations

Station Location Temp. Windchill Dew Point Humidity Wind Precip. Elev Updated Type